sensor_id;sensor_type;location;lat;lon;timestamp;pressure;altitude;pressure_sealevel;temperature;humidity
66681;BME280;53575;51.366;12.350;2023-01-19T00:00:49;99065.28;;;-2.64;94.80
66681;BME280;53575;51.366;12.350;2023-01-19T00:03:15;99060.13;;;-2.67;94.87
66681;BME280;53575;51.366;12.350;2023-01-19T00:05:42;99070.25;;;-2.70;94.81
66681;BME280;53575;51.366;12.350;2023-01-19T00:08:08;99069.41;;;-2.71;94.56
66681;BME280;53575;51.366;12.350;2023-01-19T00:10:45;99062.72;;;-2.64;93.59
66681;BME280;53575;51.366;12.350;2023-01-19T00:13:12;99077.28;;;-2.63;95.42
66681;BME280;53575;51.366;12.350;2023-01-19T00:15:38;99073.13;;;-2.58;95.20
66681;BME280;53575;51.366;12.350;2023-01-19T00:18:03;99072.91;;;-2.67;94.17
66681;BME280;53575;51.366;12.350;2023-01-19T00:20:29;99080.59;;;-2.65;94.78
66681;BME280;53575;51.366;12.350;2023-01-19T00:22:57;99086.28;;;-2.76;93.88
66681;BME280;53575;51.366;12.350;2023-01-19T00:25:22;99080.28;;;-2.78;93.37
66681;BME280;53575;51.366;12.350;2023-01-19T00:27:47;99087.31;;;-2.69;94.47
66681;BME280;53575;51.366;12.350;2023-01-19T00:30:14;99083.72;;;-2.76;94.68
66681;BME280;53575;51.366;12.350;2023-01-19T00:32:40;99085.31;;;-2.81;93.92
66681;BME280;53575;51.366;12.350;2023-01-19T00:35:06;99095.66;;;-2.76;94.04
66681;BME280;53575;51.366;12.350;2023-01-19T00:37:31;99095.50;;;-2.82;94.66
66681;BME280;53575;51.366;12.350;2023-01-19T00:39:57;99101.63;;;-2.76;93.79
66681;BME280;53575;51.366;12.350;2023-01-19T00:42:22;99101.84;;;-2.68;93.93
66681;BME280;53575;51.366;12.350;2023-01-19T00:45:19;99103.19;;;-2.81;94.36
66681;BME280;53575;51.366;12.350;2023-01-19T00:47:45;99106.94;;;-2.68;96.16
66681;BME280;53575;51.366;12.350;2023-01-19T00:50:13;99105.31;;;-2.66;95.07
66681;BME280;53575;51.366;12.350;2023-01-19T00:52:42;99107.13;;;-2.62;95.74
66681;BME280;53575;51.366;12.350;2023-01-19T00:55:09;99112.97;;;-2.66;94.22
66681;BME280;53575;51.366;12.350;2023-01-19T00:57:35;99111.19;;;-2.68;93.20
66681;BME280;53575;51.366;12.350;2023-01-19T01:00:04;99113.59;;;-2.75;93.75
66681;BME280;53575;51.366;12.350;2023-01-19T01:02:30;99110.13;;;-2.77;94.25
66681;BME280;53575;51.366;12.350;2023-01-19T01:04:56;99109.91;;;-2.84;94.11
66681;BME280;53575;51.366;12.350;2023-01-19T01:07:22;99115.25;;;-2.77;94.75
66681;BME280;53575;51.366;12.350;2023-01-19T01:09:49;99108.28;;;-2.82;93.61
66681;BME280;53575;51.366;12.350;2023-01-19T01:12:15;99110.75;;;-2.85;93.79
66681;BME280;53575;51.366;12.350;2023-01-19T01:14:40;99111.50;;;-2.89;93.18
66681;BME280;53575;51.366;12.350;2023-01-19T01:17:06;99112.81;;;-2.72;94.66
66681;BME280;53575;51.366;12.350;2023-01-19T01:19:36;99118.41;;;-2.85;93.00
66681;BME280;53575;51.366;12.350;2023-01-19T01:22:02;99119.22;;;-2.86;94.01
66681;BME280;53575;51.366;12.350;2023-01-19T01:24:27;99114.78;;;-2.93;94.36
66681;BME280;53575;51.366;12.350;2023-01-19T01:26:53;99128.16;;;-3.02;94.09
66681;BME280;53575;51.366;12.350;2023-01-19T01:29:18;99128.03;;;-3.07;94.28
66681;BME280;53575;51.366;12.350;2023-01-19T01:31:43;99131.41;;;-3.08;93.45
66681;BME280;53575;51.366;12.350;2023-01-19T01:34:09;99127.59;;;-2.92;93.37
66681;BME280;53575;51.366;12.350;2023-01-19T01:36:34;99146.53;;;-3.14;93.90
66681;BME280;53575;51.366;12.350;2023-01-19T01:39:00;99135.50;;;-3.13;93.77
66681;BME280;53575;51.366;12.350;2023-01-19T01:41:26;99132.28;;;-3.06;94.45
66681;BME280;53575;51.366;12.350;2023-01-19T01:43:53;99132.81;;;-3.17;93.63
66681;BME280;53575;51.366;12.350;2023-01-19T01:46:23;99132.81;;;-3.17;93.90
66681;BME280;53575;51.366;12.350;2023-01-19T01:49:09;99138.72;;;-3.20;92.78
66681;BME280;53575;51.366;12.350;2023-01-19T01:51:55;99137.78;;;-3.22;94.12
66681;BME280;53575;51.366;12.350;2023-01-19T01:54:29;99130.16;;;-3.21;92.91
66681;BME280;53575;51.366;12.350;2023-01-19T01:57:00;99132.66;;;-3.24;93.08
66681;BME280;53575;51.366;12.350;2023-01-19T01:59:36;99137.56;;;-3.30;93.27
66681;BME280;53575;51.366;12.350;2023-01-19T02:02:10;99130.22;;;-3.19;92.99
66681;BME280;53575;51.366;12.350;2023-01-19T02:04:58;99133.41;;;-3.26;94.05
66681;BME280;53575;51.366;12.350;2023-01-19T02:07:40;99136.50;;;-3.36;93.20
66681;BME280;53575;51.366;12.350;2023-01-19T02:10:27;99126.72;;;-3.23;92.84
66681;BME280;53575;51.366;12.350;2023-01-19T02:13:12;99139.38;;;-3.26;92.25
66681;BME280;53575;51.366;12.350;2023-01-19T02:15:52;99139.25;;;-3.30;93.33
66681;BME280;53575;51.366;12.350;2023-01-19T02:18:22;99143.44;;;-3.32;93.26
66681;BME280;53575;51.366;12.350;2023-01-19T02:23:40;99145.25;;;-3.28;92.98
66681;BME280;53575;51.366;12.350;2023-01-19T02:26:09;99145.94;;;-3.35;92.94
66681;BME280;53575;51.366;12.350;2023-01-19T02:28:38;99145.97;;;-3.34;94.42
66681;BME280;53575;51.366;12.350;2023-01-19T02:31:05;99149.09;;;-3.42;94.97
66681;BME280;53575;51.366;12.350;2023-01-19T02:33:31;99149.97;;;-3.42;95.38
66681;BME280;53575;51.366;12.350;2023-01-19T02:35:56;99146.59;;;-3.41;93.47
66681;BME280;53575;51.366;12.350;2023-01-19T02:38:24;99142.25;;;-3.44;93.33
66681;BME280;53575;51.366;12.350;2023-01-19T02:40:52;99147.66;;;-3.34;92.65
66681;BME280;53575;51.366;12.350;2023-01-19T02:43:18;99145.03;;;-3.36;94.15
66681;BME280;53575;51.366;12.350;2023-01-19T02:45:44;99138.19;;;-3.37;95.20
66681;BME280;53575;51.366;12.350;2023-01-19T02:48:10;99137.06;;;-3.18;95.62
66681;BME280;53575;51.366;12.350;2023-01-19T02:50:39;99127.69;;;-3.17;94.89
66681;BME280;53575;51.366;12.350;2023-01-19T03:12:58;99134.03;;;-3.33;92.72
66681;BME280;53575;51.366;12.350;2023-01-19T03:18:09;99141.34;;;-3.46;93.81
66681;BME280;53575;51.366;12.350;2023-01-19T03:20:36;99133.94;;;-3.36;93.62
66681;BME280;53575;51.366;12.350;2023-01-19T03:23:07;99127.81;;;-3.43;93.97
66681;BME280;53575;51.366;12.350;2023-01-19T03:25:36;99136.09;;;-3.50;94.98
66681;BME280;53575;51.366;12.350;2023-01-19T03:28:04;99140.19;;;-3.55;94.91
66681;BME280;53575;51.366;12.350;2023-01-19T03:30:35;99135.53;;;-3.40;96.26
66681;BME280;53575;51.366;12.350;2023-01-19T03:33:07;99146.72;;;-3.36;95.06
66681;BME280;53575;51.366;12.350;2023-01-19T03:35:40;99139.66;;;-3.45;94.82
66681;BME280;53575;51.366;12.350;2023-01-19T03:38:13;99147.44;;;-3.40;93.51
66681;BME280;53575;51.366;12.350;2023-01-19T03:40:40;99145.69;;;-3.43;92.95
66681;BME280;53575;51.366;12.350;2023-01-19T03:43:06;99143.06;;;-3.45;92.77
66681;BME280;53575;51.366;12.350;2023-01-19T03:45:36;99146.06;;;-3.58;91.57
66681;BME280;53575;51.366;12.350;2023-01-19T03:48:03;99146.59;;;-3.41;93.11
66681;BME280;53575;51.366;12.350;2023-01-19T03:50:29;99154.84;;;-3.50;92.13
66681;BME280;53575;51.366;12.350;2023-01-19T03:53:09;99159.31;;;-3.42;90.48
66681;BME280;53575;51.366;12.350;2023-01-19T03:55:37;99159.41;;;-3.39;90.61
66681;BME280;53575;51.366;12.350;2023-01-19T03:58:03;99154.63;;;-3.29;91.52
66681;BME280;53575;51.366;12.350;2023-01-19T04:00:28;99162.88;;;-3.37;91.17
66681;BME280;53575;51.366;12.350;2023-01-19T04:02:54;99167.09;;;-3.39;90.14
66681;BME280;53575;51.366;12.350;2023-01-19T04:05:20;99158.50;;;-3.41;90.84
66681;BME280;53575;51.366;12.350;2023-01-19T04:07:50;99166.97;;;-3.42;89.48
66681;BME280;53575;51.366;12.350;2023-01-19T04:10:19;99176.16;;;-3.48;89.31
66681;BME280;53575;51.366;12.350;2023-01-19T04:12:45;99172.03;;;-3.44;90.05
66681;BME280;53575;51.366;12.350;2023-01-19T04:15:11;99176.56;;;-3.35;90.28
66681;BME280;53575;51.366;12.350;2023-01-19T04:17:37;99184.47;;;-3.55;90.75
66681;BME280;53575;51.366;12.350;2023-01-19T04:20:04;99178.81;;;-3.45;91.54
66681;BME280;53575;51.366;12.350;2023-01-19T04:22:30;99181.63;;;-3.64;92.02
66681;BME280;53575;51.366;12.350;2023-01-19T04:24:55;99183.56;;;-3.57;91.54
66681;BME280;53575;51.366;12.350;2023-01-19T04:27:21;99178.16;;;-3.66;91.82
66681;BME280;53575;51.366;12.350;2023-01-19T04:29:46;99180.38;;;-3.77;91.84
66681;BME280;53575;51.366;12.350;2023-01-19T04:32:12;99182.22;;;-3.71;92.47
66681;BME280;53575;51.366;12.350;2023-01-19T04:34:38;99193.47;;;-3.66;91.23
66681;BME280;53575;51.366;12.350;2023-01-19T04:37:03;99181.50;;;-3.67;91.09
66681;BME280;53575;51.366;12.350;2023-01-19T04:39:30;99186.19;;;-3.81;91.62
66681;BME280;53575;51.366;12.350;2023-01-19T04:41:55;99181.94;;;-3.80;92.98
66681;BME280;53575;51.366;12.350;2023-01-19T04:44:22;99189.13;;;-3.69;92.82
66681;BME280;53575;51.366;12.350;2023-01-19T04:46:48;99187.78;;;-3.84;91.89
66681;BME280;53575;51.366;12.350;2023-01-19T04:49:13;99183.44;;;-3.87;91.48
66681;BME280;53575;51.366;12.350;2023-01-19T04:51:39;99188.41;;;-3.90;91.54
66681;BME280;53575;51.366;12.350;2023-01-19T04:54:04;99194.50;;;-3.86;91.52
66681;BME280;53575;51.366;12.350;2023-01-19T04:56:33;99185.94;;;-3.88;92.11
66681;BME280;53575;51.366;12.350;2023-01-19T04:58:58;99190.47;;;-3.80;92.70
66681;BME280;53575;51.366;12.350;2023-01-19T05:01:24;99181.69;;;-3.88;92.48
66681;BME280;53575;51.366;12.350;2023-01-19T05:03:50;99174.63;;;-3.97;92.93
66681;BME280;53575;51.366;12.350;2023-01-19T05:06:15;99183.34;;;-4.15;93.46
66681;BME280;53575;51.366;12.350;2023-01-19T05:08:41;99185.63;;;-3.98;93.28
66681;BME280;53575;51.366;12.350;2023-01-19T05:11:06;99177.59;;;-4.08;94.14
66681;BME280;53575;51.366;12.350;2023-01-19T05:13:31;99186.84;;;-4.12;93.78
66681;BME280;53575;51.366;12.350;2023-01-19T05:15:57;99181.84;;;-4.09;93.77
66681;BME280;53575;51.366;12.350;2023-01-19T05:18:23;99191.66;;;-3.96;93.84
66681;BME280;53575;51.366;12.350;2023-01-19T05:20:48;99188.78;;;-4.05;93.92
66681;BME280;53575;51.366;12.350;2023-01-19T05:23:13;99190.59;;;-4.01;94.21
66681;BME280;53575;51.366;12.350;2023-01-19T05:25:39;99191.75;;;-3.93;94.04
66681;BME280;53575;51.366;12.350;2023-01-19T05:28:04;99184.75;;;-3.98;93.82
66681;BME280;53575;51.366;12.350;2023-01-19T05:30:30;99190.56;;;-4.02;93.89
66681;BME280;53575;51.366;12.350;2023-01-19T05:32:55;99198.25;;;-4.01;94.23
66681;BME280;53575;51.366;12.350;2023-01-19T05:35:20;99198.47;;;-3.95;95.59
66681;BME280;53575;51.366;12.350;2023-01-19T05:37:46;99198.06;;;-4.07;95.73
66681;BME280;53575;51.366;12.350;2023-01-19T05:40:11;99204.03;;;-4.06;95.25
66681;BME280;53575;51.366;12.350;2023-01-19T05:42:37;99205.34;;;-4.18;95.01
66681;BME280;53575;51.366;12.350;2023-01-19T05:45:03;99198.94;;;-4.06;94.67
66681;BME280;53575;51.366;12.350;2023-01-19T05:47:29;99205.66;;;-4.08;94.58
66681;BME280;53575;51.366;12.350;2023-01-19T05:49:55;99192.91;;;-4.08;94.25
66681;BME280;53575;51.366;12.350;2023-01-19T05:52:20;99198.91;;;-4.08;94.64
66681;BME280;53575;51.366;12.350;2023-01-19T05:54:46;99196.38;;;-4.06;95.44
66681;BME280;53575;51.366;12.350;2023-01-19T05:57:12;99191.25;;;-4.08;95.54
66681;BME280;53575;51.366;12.350;2023-01-19T05:59:38;99189.34;;;-4.13;95.54
66681;BME280;53575;51.366;12.350;2023-01-19T06:02:04;99187.00;;;-4.07;95.72
66681;BME280;53575;51.366;12.350;2023-01-19T06:04:30;99188.22;;;-3.96;96.19
66681;BME280;53575;51.366;12.350;2023-01-19T06:06:55;99188.88;;;-4.02;95.98
66681;BME280;53575;51.366;12.350;2023-01-19T06:09:20;99191.53;;;-3.99;97.26
66681;BME280;53575;51.366;12.350;2023-01-19T06:11:46;99196.53;;;-4.02;96.95
66681;BME280;53575;51.366;12.350;2023-01-19T06:14:11;99193.81;;;-4.08;96.96
66681;BME280;53575;51.366;12.350;2023-01-19T06:16:37;99199.94;;;-4.01;97.46
66681;BME280;53575;51.366;12.350;2023-01-19T06:19:03;99199.94;;;-4.01;96.67
66681;BME280;53575;51.366;12.350;2023-01-19T06:21:28;99202.25;;;-4.09;96.34
66681;BME280;53575;51.366;12.350;2023-01-19T06:23:54;99206.56;;;-4.08;96.47
66681;BME280;53575;51.366;12.350;2023-01-19T06:26:19;99206.25;;;-3.92;96.63
66681;BME280;53575;51.366;12.350;2023-01-19T06:28:45;99212.78;;;-4.00;95.56
66681;BME280;53575;51.366;12.350;2023-01-19T06:31:12;99219.38;;;-4.05;95.73
66681;BME280;53575;51.366;12.350;2023-01-19T06:33:38;99219.72;;;-3.96;96.63
66681;BME280;53575;51.366;12.350;2023-01-19T06:36:04;99219.13;;;-3.88;95.60
66681;BME280;53575;51.366;12.350;2023-01-19T06:38:29;99212.22;;;-3.91;96.34
66681;BME280;53575;51.366;12.350;2023-01-19T06:40:57;99212.78;;;-4.00;96.28
66681;BME280;53575;51.366;12.350;2023-01-19T06:43:24;99212.97;;;-3.94;95.88
66681;BME280;53575;51.366;12.350;2023-01-19T06:45:50;99213.19;;;-3.87;95.89
66681;BME280;53575;51.366;12.350;2023-01-19T06:48:16;99210.59;;;-3.89;96.05
66681;BME280;53575;51.366;12.350;2023-01-19T06:50:44;99212.97;;;-3.94;96.37
66681;BME280;53575;51.366;12.350;2023-01-19T06:53:09;99208.31;;;-3.81;96.73
66681;BME280;53575;51.366;12.350;2023-01-19T06:55:35;99214.25;;;-3.81;96.34
66681;BME280;53575;51.366;12.350;2023-01-19T06:58:01;99211.66;;;-3.82;96.34
66681;BME280;53575;51.366;12.350;2023-01-19T07:00:27;99216.13;;;-3.75;97.31
66681;BME280;53575;51.366;12.350;2023-01-19T07:02:53;99209.34;;;-3.75;96.80
66681;BME280;53575;51.366;12.350;2023-01-19T07:05:18;99210.28;;;-3.73;96.25
66681;BME280;53575;51.366;12.350;2023-01-19T07:07:55;99216.09;;;-3.77;96.33
66681;BME280;53575;51.366;12.350;2023-01-19T07:10:21;99211.09;;;-3.74;96.36
66681;BME280;53575;51.366;12.350;2023-01-19T07:12:46;99210.06;;;-3.79;96.49
66681;BME280;53575;51.366;12.350;2023-01-19T07:15:16;99209.44;;;-3.72;96.71
66681;BME280;53575;51.366;12.350;2023-01-19T07:17:44;99210.94;;;-3.78;96.72
66681;BME280;53575;51.366;12.350;2023-01-19T07:20:10;99216.59;;;-3.61;97.13
66681;BME280;53575;51.366;12.350;2023-01-19T07:22:37;99228.19;;;-3.71;96.63
66681;BME280;53575;51.366;12.350;2023-01-19T07:25:03;99228.50;;;-3.62;96.75
66681;BME280;53575;51.366;12.350;2023-01-19T07:27:29;99237.22;;;-3.55;96.71
66681;BME280;53575;51.366;12.350;2023-01-19T07:29:54;99236.97;;;-3.63;95.94
66681;BME280;53575;51.366;12.350;2023-01-19T07:32:20;99246.31;;;-3.63;95.78
66681;BME280;53575;51.366;12.350;2023-01-19T07:34:45;99244.72;;;-3.60;95.74
66681;BME280;53575;51.366;12.350;2023-01-19T07:37:11;99248.13;;;-3.59;95.59
66681;BME280;53575;51.366;12.350;2023-01-19T07:39:37;99261.09;;;-3.55;95.95
66681;BME280;53575;51.366;12.350;2023-01-19T07:42:02;99261.94;;;-3.54;96.24
66681;BME280;53575;51.366;12.350;2023-01-19T07:44:28;99259.47;;;-3.51;96.77
66681;BME280;53575;51.366;12.350;2023-01-19T07:46:53;99261.13;;;-3.53;96.68
66681;BME280;53575;51.366;12.350;2023-01-19T07:49:19;99260.44;;;-3.48;96.52
66681;BME280;53575;51.366;12.350;2023-01-19T07:51:45;99262.00;;;-3.53;96.08
66681;BME280;53575;51.366;12.350;2023-01-19T07:54:10;99265.38;;;-3.54;96.41
66681;BME280;53575;51.366;12.350;2023-01-19T07:56:36;99256.56;;;-3.36;96.03
66681;BME280;53575;51.366;12.350;2023-01-19T07:59:01;99261.66;;;-3.36;95.96
66681;BME280;53575;51.366;12.350;2023-01-19T08:01:27;99259.09;;;-3.36;95.85
66681;BME280;53575;51.366;12.350;2023-01-19T08:03:53;99265.16;;;-3.34;96.05
66681;BME280;53575;51.366;12.350;2023-01-19T08:06:21;99268.81;;;-3.26;95.80
66681;BME280;53575;51.366;12.350;2023-01-19T08:08:48;99265.53;;;-3.22;95.82
66681;BME280;53575;51.366;12.350;2023-01-19T08:11:13;99272.19;;;-3.27;95.56
66681;BME280;53575;51.366;12.350;2023-01-19T08:13:39;99269.81;;;-3.21;95.51
66681;BME280;53575;51.366;12.350;2023-01-19T08:16:05;99270.69;;;-3.21;96.07
66681;BME280;53575;51.366;12.350;2023-01-19T08:18:30;99278.34;;;-3.21;96.06
66681;BME280;53575;51.366;12.350;2023-01-19T08:20:58;99269.28;;;-3.11;95.62
66681;BME280;53575;51.366;12.350;2023-01-19T08:23:24;99268.56;;;-3.07;95.48
66681;BME280;53575;51.366;12.350;2023-01-19T08:25:49;99271.44;;;-2.98;95.10
66681;BME280;53575;51.366;12.350;2023-01-19T08:28:15;99270.50;;;-3.00;94.95
66681;BME280;53575;51.366;12.350;2023-01-19T08:30:42;99271.72;;;-2.87;95.07
66681;BME280;53575;51.366;12.350;2023-01-19T08:33:09;99273.63;;;-2.81;94.77
66681;BME280;53575;51.366;12.350;2023-01-19T08:35:38;99274.72;;;-2.73;93.85
66681;BME280;53575;51.366;12.350;2023-01-19T08:38:04;99276.75;;;-2.63;93.18
66681;BME280;53575;51.366;12.350;2023-01-19T08:40:33;99268.38;;;-2.57;93.05
66681;BME280;53575;51.366;12.350;2023-01-19T08:43:00;99270.25;;;-2.52;93.02
66681;BME280;53575;51.366;12.350;2023-01-19T08:45:27;99270.53;;;-2.41;92.52
66681;BME280;53575;51.366;12.350;2023-01-19T08:47:55;99267.19;;;-2.40;91.58
66681;BME280;53575;51.366;12.350;2023-01-19T08:50:21;99267.41;;;-2.31;91.88
66681;BME280;53575;51.366;12.350;2023-01-19T08:52:47;99266.59;;;-2.30;91.43
66681;BME280;53575;51.366;12.350;2023-01-19T08:55:12;99275.28;;;-2.25;91.69
66681;BME280;53575;51.366;12.350;2023-01-19T08:57:38;99268.81;;;-2.12;91.84
66681;BME280;53575;51.366;12.350;2023-01-19T09:00:03;99277.41;;;-2.10;90.75
66681;BME280;53575;51.366;12.350;2023-01-19T09:02:32;99269.78;;;-2.07;90.89
66681;BME280;53575;51.366;12.350;2023-01-19T09:04:57;99269.84;;;-2.05;90.83
66681;BME280;53575;51.366;12.350;2023-01-19T09:07:22;99284.41;;;-2.03;90.89
66681;BME280;53575;51.366;12.350;2023-01-19T09:09:48;99277.84;;;-1.93;90.66
66681;BME280;53575;51.366;12.350;2023-01-19T09:12:13;99276.16;;;-1.92;90.47
66681;BME280;53575;51.366;12.350;2023-01-19T09:14:39;99291.59;;;-1.89;90.16
66681;BME280;53575;51.366;12.350;2023-01-19T09:17:04;99289.38;;;-1.77;90.13
66681;BME280;53575;51.366;12.350;2023-01-19T09:19:30;99289.56;;;-1.69;90.00
66681;BME280;53575;51.366;12.350;2023-01-19T09:21:55;99289.56;;;-1.69;89.38
66681;BME280;53575;51.366;12.350;2023-01-19T09:24:23;99284.66;;;-1.62;89.56
66681;BME280;53575;51.366;12.350;2023-01-19T09:26:48;99289.94;;;-1.56;89.34
66681;BME280;53575;51.366;12.350;2023-01-19T09:29:14;99291.09;;;-1.43;89.22
66681;BME280;53575;51.366;12.350;2023-01-19T09:31:39;99296.44;;;-1.34;88.39
66681;BME280;53575;51.366;12.350;2023-01-19T09:34:05;99304.00;;;-1.40;87.90
66681;BME280;53575;51.366;12.350;2023-01-19T09:36:30;99293.84;;;-1.35;88.33
66681;BME280;53575;51.366;12.350;2023-01-19T09:38:56;99294.88;;;-1.29;87.94
66681;BME280;53575;51.366;12.350;2023-01-19T09:41:22;99295.66;;;-1.31;88.17
66681;BME280;53575;51.366;12.350;2023-01-19T09:43:59;99293.41;;;-1.19;88.78
66681;BME280;53575;51.366;12.350;2023-01-19T09:46:37;99299.53;;;-1.14;88.14
66681;BME280;53575;51.366;12.350;2023-01-19T09:49:28;99296.97;;;-1.12;87.25
66681;BME280;53575;51.366;12.350;2023-01-19T09:51:55;99299.66;;;-1.08;87.75
66681;BME280;53575;51.366;12.350;2023-01-19T09:54:46;99300.84;;;-0.95;87.38
66681;BME280;53575;51.366;12.350;2023-01-19T09:57:14;99296.47;;;-0.99;87.37
66681;BME280;53575;51.366;12.350;2023-01-19T09:59:40;99297.31;;;-0.99;87.50
66681;BME280;53575;51.366;12.350;2023-01-19T10:02:29;99296.84;;;-0.82;87.16
66681;BME280;53575;51.366;12.350;2023-01-19T10:04:58;99288.31;;;-0.81;86.78
66681;BME280;53575;51.366;12.350;2023-01-19T10:07:49;99283.06;;;-0.86;86.60
66681;BME280;53575;51.366;12.350;2023-01-19T10:10:30;99288.47;;;-0.74;86.51
66681;BME280;53575;51.366;12.350;2023-01-19T10:15:59;99268.97;;;-0.67;86.29
66681;BME280;53575;51.366;12.350;2023-01-19T10:18:45;99276.69;;;-0.65;nan
66681;BME280;53575;51.366;12.350;2023-01-19T10:21:27;99271.72;;;-0.58;86.35
66681;BME280;53575;51.366;12.350;2023-01-19T10:26:37;99266.03;;;-0.44;85.41
66681;BME280;53575;51.366;12.350;2023-01-19T10:29:07;99263.69;;;-0.34;85.47
66681;BME280;53575;51.366;12.350;2023-01-19T10:31:38;99251.66;;;-0.35;84.81
66681;BME280;53575;51.366;12.350;2023-01-19T10:34:05;99245.53;;;-0.43;85.21
66681;BME280;53575;51.366;12.350;2023-01-19T10:36:36;99261.94;;;-0.35;85.73
66681;BME280;53575;51.366;12.350;2023-01-19T10:39:03;99258.44;;;-0.38;85.64
66681;BME280;53575;51.366;12.350;2023-01-19T10:41:46;99266.25;;;-0.34;85.67
66681;BME280;53575;51.366;12.350;2023-01-19T10:44:22;99256.16;;;-0.25;85.80
66681;BME280;53575;51.366;12.350;2023-01-19T10:46:48;99262.28;;;-0.18;85.34
66681;BME280;53575;51.366;12.350;2023-01-19T10:49:28;99271.88;;;-0.09;85.39
66681;BME280;53575;51.366;12.350;2023-01-19T10:51:55;99272.09;;;0.03;84.54
66681;BME280;53575;51.366;12.350;2023-01-19T10:54:21;99262.69;;;0.04;85.02
66681;BME280;53575;51.366;12.350;2023-01-19T10:56:57;99260.97;;;0.03;84.24
66681;BME280;53575;51.366;12.350;2023-01-19T10:59:30;99259.47;;;0.12;84.40
66681;BME280;53575;51.366;12.350;2023-01-19T11:04:42;99262.25;;;0.24;84.12
66681;BME280;53575;51.366;12.350;2023-01-19T11:07:16;99270.94;;;0.33;83.89
66681;BME280;53575;51.366;12.350;2023-01-19T11:09:43;99260.53;;;0.25;83.53
66681;BME280;53575;51.366;12.350;2023-01-19T11:12:38;99266.72;;;0.36;83.88
66681;BME280;53575;51.366;12.350;2023-01-19T11:15:12;99267.72;;;0.44;83.50
66681;BME280;53575;51.366;12.350;2023-01-19T11:17:44;99262.56;;;0.43;83.04
66681;BME280;53575;51.366;12.350;2023-01-19T11:20:24;99269.44;;;0.45;83.09
66681;BME280;53575;51.366;12.350;2023-01-19T11:23:30;99262.75;;;0.54;83.33
66681;BME280;53575;51.366;12.350;2023-01-19T11:25:59;99261.09;;;0.57;82.74
66681;BME280;53575;51.366;12.350;2023-01-19T11:28:34;99252.63;;;0.63;83.61
66681;BME280;53575;51.366;12.350;2023-01-19T11:33:51;99256.31;;;0.79;82.41
66681;BME280;53575;51.366;12.350;2023-01-19T11:36:25;99253.75;;;0.79;82.32
66681;BME280;53575;51.366;12.350;2023-01-19T11:38:59;99239.41;;;0.94;82.43
66681;BME280;53575;51.366;12.350;2023-01-19T11:41:28;99240.16;;;0.87;81.87
66681;BME280;53575;51.366;12.350;2023-01-19T11:44:38;99236.75;;;0.88;81.58
66681;BME280;53575;51.366;12.350;2023-01-19T11:47:15;99246.13;;;0.86;82.83
66681;BME280;53575;51.366;12.350;2023-01-19T11:49:46;99232.66;;;1.01;81.53
66681;BME280;53575;51.366;12.350;2023-01-19T11:57:23;99242.19;;;1.10;80.80
66681;BME280;53575;51.366;12.350;2023-01-19T11:59:48;99239.69;;;1.14;80.72
66681;BME280;53575;51.366;12.350;2023-01-19T12:02:27;99246.75;;;1.26;80.25
66681;BME280;53575;51.366;12.350;2023-01-19T12:05:00;99231.47;;;1.38;80.08
66681;BME280;53575;51.366;12.350;2023-01-19T12:07:31;99227.97;;;1.35;79.54
66681;BME280;53575;51.366;12.350;2023-01-19T12:10:28;99229.75;;;1.40;79.52
66681;BME280;53575;51.366;12.350;2023-01-19T12:12:55;99226.47;;;1.49;79.32
66681;BME280;53575;51.366;12.350;2023-01-19T12:15:27;99219.59;;;1.51;79.09
66681;BME280;53575;51.366;12.350;2023-01-19T12:17:57;99221.31;;;1.51;78.68
66681;BME280;53575;51.366;12.350;2023-01-19T12:26:07;99223.78;;;1.41;78.77
66681;BME280;53575;51.366;12.350;2023-01-19T12:28:44;99220.41;;;1.45;78.73
66681;BME280;53575;51.366;12.350;2023-01-19T12:31:14;99225.47;;;1.39;78.63
66681;BME280;53575;51.366;12.350;2023-01-19T12:33:41;99230.72;;;1.47;78.53
66681;BME280;53575;51.366;12.350;2023-01-19T12:38:47;99238.63;;;1.62;78.96
66681;BME280;53575;51.366;12.350;2023-01-19T12:41:21;99240.63;;;1.83;77.73
66681;BME280;53575;51.366;12.350;2023-01-19T12:44:14;99242.38;;;1.89;77.71
66681;BME280;53575;51.366;12.350;2023-01-19T12:46:34;99243.44;;;2.06;76.12
66681;BME280;53575;51.366;12.350;2023-01-19T12:52:29;99234.34;;;2.43;74.85
66681;BME280;53575;51.366;12.350;2023-01-19T13:00:44;99242.94;;;2.42;74.89
66681;BME280;53575;51.366;12.350;2023-01-19T13:13:37;99248.88;;;2.35;75.96
66681;BME280;53575;51.366;12.350;2023-01-19T13:21:42;99253.13;;;2.32;75.98
66681;BME280;53575;51.366;12.350;2023-01-19T13:24:09;99246.97;;;2.16;76.72
66681;BME280;53575;51.366;12.350;2023-01-19T13:26:37;99251.28;;;2.18;77.22
66681;BME280;53575;51.366;12.350;2023-01-19T13:31:37;99248.56;;;2.05;77.75
66681;BME280;53575;51.366;12.350;2023-01-19T13:34:12;99254.53;;;2.02;77.68
66681;BME280;53575;51.366;12.350;2023-01-19T13:36:43;99261.22;;;1.85;78.41
66681;BME280;53575;51.366;12.350;2023-01-19T13:39:35;99256.78;;;1.73;78.99
66681;BME280;53575;51.366;12.350;2023-01-19T13:42:41;99260.13;;;1.67;79.52
66681;BME280;53575;51.366;12.350;2023-01-19T13:45:02;99250.69;;;1.66;79.71
66681;BME280;53575;51.366;12.350;2023-01-19T13:47:40;99262.72;;;1.67;79.48
66681;BME280;53575;51.366;12.350;2023-01-19T13:50:34;99263.50;;;1.60;79.56
66681;BME280;53575;51.366;12.350;2023-01-19T13:53:00;99266.91;;;1.58;79.47
66681;BME280;53575;51.366;12.350;2023-01-19T13:55:28;99260.09;;;1.61;80.15
66681;BME280;53575;51.366;12.350;2023-01-19T13:57:55;99255.75;;;1.57;79.83
66681;BME280;53575;51.366;12.350;2023-01-19T14:00:26;99259.22;;;1.64;79.97
66681;BME280;53575;51.366;12.350;2023-01-19T14:02:56;99263.59;;;1.68;79.75
66681;BME280;53575;51.366;12.350;2023-01-19T14:05:26;99255.84;;;1.65;79.41
66681;BME280;53575;51.366;12.350;2023-01-19T14:08:18;99258.41;;;1.65;79.52
66681;BME280;53575;51.366;12.350;2023-01-19T14:10:45;99260.09;;;1.63;79.46
66681;BME280;53575;51.366;12.350;2023-01-19T14:15:40;99261.78;;;1.61;79.42
66681;BME280;53575;51.366;12.350;2023-01-19T14:23:48;99275.69;;;1.75;80.27
66681;BME280;53575;51.366;12.350;2023-01-19T14:27:06;99272.16;;;1.65;79.17
66681;BME280;53575;51.366;12.350;2023-01-19T14:29:34;99278.22;;;1.70;79.53